createdAt,value
2022-12-12T00:00:15.897Z,20.00
2022-12-12T00:02:45.226Z,20.00
2022-12-12T00:05:17.195Z,20.00
2022-12-12T00:07:47.058Z,19.90
2022-12-12T00:10:16.334Z,19.90
2022-12-12T00:12:46.985Z,19.90
2022-12-12T00:15:16.278Z,19.90
2022-12-12T00:17:45.480Z,19.80
2022-12-12T00:20:14.799Z,19.80
2022-12-12T00:22:44.132Z,19.80
2022-12-12T00:25:13.927Z,19.80
2022-12-12T00:27:44.007Z,19.80
2022-12-12T00:30:15.281Z,19.70
2022-12-12T00:32:44.497Z,19.70
2022-12-12T00:35:13.875Z,19.70
2022-12-12T00:37:43.255Z,19.70
2022-12-12T00:40:13.822Z,19.70
2022-12-12T00:42:43.008Z,19.70
2022-12-12T00:45:14.774Z,19.60
2022-12-12T00:47:44.263Z,19.60
2022-12-12T00:50:13.440Z,19.60
2022-12-12T00:52:42.657Z,19.60
2022-12-12T00:55:13.958Z,19.60
2022-12-12T00:57:43.536Z,19.60
2022-12-12T01:00:16.851Z,19.50
2022-12-12T01:02:47.839Z,19.50
2022-12-12T01:05:18.314Z,19.50
2022-12-12T01:07:47.664Z,19.50
2022-12-12T01:10:16.921Z,19.50
2022-12-12T01:12:46.211Z,19.50
2022-12-12T01:15:17.137Z,19.40
2022-12-12T01:17:46.542Z,19.40
2022-12-12T01:20:20.828Z,19.40
2022-12-12T01:22:50.088Z,19.40
2022-12-12T01:25:20.087Z,19.40
2022-12-12T01:27:49.338Z,19.40
2022-12-12T01:30:22.920Z,19.40
2022-12-12T01:32:52.313Z,19.40
2022-12-12T01:35:21.561Z,19.30
2022-12-12T01:37:53.394Z,19.30
2022-12-12T01:40:25.579Z,19.30
2022-12-12T01:42:55.244Z,19.30
2022-12-12T01:46:10.078Z,19.30
2022-12-12T01:48:46.774Z,19.30
2022-12-12T01:51:18.335Z,19.30
2022-12-12T01:53:49.531Z,19.20
2022-12-12T01:56:20.682Z,19.20
2022-12-12T01:58:52.645Z,19.20
2022-12-12T02:01:23.162Z,19.20
2022-12-12T02:03:54.633Z,19.10
2022-12-12T02:06:27.655Z,19.10
2022-12-12T02:09:01.195Z,19.10
2022-12-12T02:11:31.428Z,19.10
2022-12-12T02:14:01.498Z,19.10
2022-12-12T02:16:45.958Z,19.10
2022-12-12T02:19:41.161Z,19.10
2022-12-12T02:22:19.022Z,19.10
2022-12-12T02:25:13.522Z,19.00
2022-12-12T02:28:10.107Z,19.00
2022-12-12T02:30:46.434Z,19.00
2022-12-12T02:33:26.747Z,19.00
2022-12-12T02:36:06.345Z,19.00
2022-12-12T02:38:43.903Z,18.90
2022-12-12T02:41:19.763Z,18.90
2022-12-12T02:43:59.363Z,18.90
2022-12-12T02:46:34.261Z,18.90
2022-12-12T02:49:11.073Z,18.90
2022-12-12T02:51:40.734Z,18.80
2022-12-12T02:54:15.843Z,18.80
2022-12-12T02:56:51.818Z,18.80
2022-12-12T02:59:28.040Z,18.80
2022-12-12T03:02:29.476Z,18.80
2022-12-12T03:05:40.036Z,18.80
2022-12-12T03:08:20.586Z,18.80
2022-12-12T03:10:57.196Z,18.70
2022-12-12T03:13:34.702Z,18.70
2022-12-12T03:16:14.209Z,18.70
2022-12-12T03:18:51.761Z,18.70
2022-12-12T03:21:28.037Z,18.70
2022-12-12T03:24:04.402Z,18.70
2022-12-12T03:26:38.743Z,18.70
2022-12-12T03:29:11.678Z,18.70
2022-12-12T03:31:46.634Z,18.60
2022-12-12T03:34:20.300Z,18.60
2022-12-12T03:36:54.798Z,18.60
2022-12-12T03:39:31.245Z,18.60
2022-12-12T03:42:05.950Z,18.60
2022-12-12T03:44:41.781Z,18.50
2022-12-12T03:47:14.999Z,18.50
2022-12-12T03:49:48.488Z,18.50
2022-12-12T03:52:24.899Z,18.50
2022-12-12T03:54:59.065Z,18.50
2022-12-12T03:57:34.135Z,18.50
2022-12-12T04:00:07.935Z,18.50
2022-12-12T04:02:52.333Z,18.40
2022-12-12T04:05:25.797Z,18.40
2022-12-12T04:08:04.129Z,18.40
2022-12-12T04:10:57.623Z,18.40
2022-12-12T04:13:34.667Z,18.40
2022-12-12T04:16:12.003Z,18.40
2022-12-12T04:18:49.674Z,18.40
2022-12-12T04:21:51.495Z,18.40
2022-12-12T04:24:30.826Z,18.30
2022-12-12T04:27:02.786Z,18.30
2022-12-12T04:29:40.050Z,18.30
2022-12-12T04:32:18.559Z,18.30
2022-12-12T04:34:52.662Z,18.30
2022-12-12T04:37:28.354Z,18.30
2022-12-12T04:40:03.094Z,18.30
2022-12-12T04:42:37.373Z,18.30
2022-12-12T04:45:11.706Z,18.30
2022-12-12T04:47:43.456Z,18.30
2022-12-12T04:50:14.490Z,18.30
2022-12-12T04:52:46.462Z,18.30
2022-12-12T04:55:23.048Z,18.20
2022-12-12T04:57:55.005Z,18.20
2022-12-12T05:00:26.161Z,18.20
2022-12-12T05:03:02.472Z,18.20
2022-12-12T05:05:37.722Z,18.20
2022-12-12T05:08:10.855Z,18.20
2022-12-12T05:10:46.994Z,18.20
2022-12-12T05:13:19.281Z,18.20
2022-12-12T05:15:49.836Z,18.10
2022-12-12T05:18:19.184Z,18.10
2022-12-12T05:20:48.807Z,18.10
2022-12-12T05:23:18.040Z,18.10
2022-12-12T05:25:49.182Z,18.20
2022-12-12T05:28:18.462Z,18.10
2022-12-12T05:30:47.663Z,18.10
2022-12-12T05:33:16.989Z,18.10
2022-12-12T05:35:46.326Z,18.10
2022-12-12T05:38:15.635Z,18.40
2022-12-12T05:40:44.873Z,18.30
2022-12-12T05:43:15.709Z,18.20
2022-12-12T05:45:45.055Z,18.20
2022-12-12T05:48:14.394Z,18.10
2022-12-12T05:50:45.155Z,18.10
2022-12-12T05:53:14.449Z,18.10
2022-12-12T05:55:43.777Z,18.00
2022-12-12T05:58:14.443Z,18.00
2022-12-12T06:00:43.632Z,18.00
2022-12-12T06:03:12.842Z,18.00
2022-12-12T06:05:42.032Z,17.90
2022-12-12T06:08:11.421Z,17.90
2022-12-12T06:10:40.611Z,17.90
2022-12-12T06:13:09.855Z,17.90
2022-12-12T06:15:42.996Z,17.90
2022-12-12T06:18:13.021Z,17.90
2022-12-12T06:20:42.458Z,17.90
2022-12-12T06:23:11.674Z,17.90
2022-12-12T06:25:41.001Z,17.90
2022-12-12T06:28:10.540Z,17.90
2022-12-12T06:30:41.370Z,17.80
2022-12-12T06:33:10.617Z,17.80
2022-12-12T06:35:39.899Z,17.80
2022-12-12T06:38:09.080Z,17.80
2022-12-12T06:40:41.165Z,17.80
2022-12-12T06:43:10.454Z,17.80
2022-12-12T06:45:39.753Z,17.80
2022-12-12T06:48:10.389Z,17.80
2022-12-12T06:50:41.062Z,17.80
2022-12-12T06:53:10.726Z,17.80
2022-12-12T06:55:43.782Z,17.70
2022-12-12T06:58:13.059Z,17.70
2022-12-12T07:00:42.426Z,17.70
2022-12-12T07:03:14.719Z,17.70
2022-12-12T07:05:44.065Z,17.70
2022-12-12T07:08:13.336Z,17.70
2022-12-12T07:10:42.980Z,17.70
2022-12-12T07:13:12.343Z,17.70
2022-12-12T07:15:44.819Z,17.70
2022-12-12T07:18:16.265Z,17.60
2022-12-12T07:20:47.271Z,17.60
2022-12-12T07:23:16.871Z,17.60
2022-12-12T07:25:46.343Z,17.60
2022-12-12T07:28:16.421Z,17.60
2022-12-12T07:30:47.559Z,17.60
2022-12-12T07:33:18.933Z,17.60
2022-12-12T07:35:48.093Z,17.60
2022-12-12T07:38:17.226Z,17.50
2022-12-12T07:40:46.397Z,17.60
2022-12-12T07:43:15.543Z,17.50
2022-12-12T07:45:45.876Z,17.50
2022-12-12T07:48:15.606Z,17.50
2022-12-12T07:50:46.178Z,17.50
2022-12-12T07:53:15.437Z,17.50
2022-12-12T07:55:44.628Z,17.50
2022-12-12T07:58:13.886Z,17.50
2022-12-12T08:00:43.126Z,17.40
2022-12-12T08:03:12.313Z,17.50
2022-12-12T08:05:41.872Z,17.50
2022-12-12T08:08:12.561Z,17.40
2022-12-12T08:10:42.385Z,17.40
2022-12-12T08:13:11.986Z,17.40
2022-12-12T08:15:41.304Z,17.40
2022-12-12T08:18:10.532Z,17.40
2022-12-12T08:20:41.507Z,17.40
2022-12-12T08:23:12.169Z,17.40
2022-12-12T08:25:41.414Z,17.40
2022-12-12T08:28:13.769Z,17.40
2022-12-12T08:30:42.964Z,17.30
2022-12-12T08:33:12.232Z,17.30
2022-12-12T08:35:41.507Z,17.30
2022-12-12T08:38:12.103Z,17.30
2022-12-12T08:40:41.798Z,17.30
2022-12-12T08:43:11.235Z,17.30
2022-12-12T08:45:40.936Z,17.30
2022-12-12T08:48:12.132Z,17.30
2022-12-12T08:50:42.425Z,17.30
2022-12-12T08:53:13.232Z,17.30
2022-12-12T08:55:43.106Z,17.30
2022-12-12T08:58:12.426Z,17.30
2022-12-12T09:00:41.727Z,17.30
2022-12-12T09:03:10.975Z,17.30
2022-12-12T09:05:44.541Z,17.20
2022-12-12T09:08:16.098Z,17.20
2022-12-12T09:10:45.422Z,17.20
2022-12-12T09:13:14.698Z,17.20
2022-12-12T09:15:44.026Z,17.20
2022-12-12T09:18:13.282Z,17.20
2022-12-12T09:20:42.542Z,17.20
2022-12-12T09:23:14.613Z,17.20
2022-12-12T09:25:44.058Z,17.20
2022-12-12T09:28:13.597Z,17.20
2022-12-12T09:30:43.467Z,17.20
2022-12-12T09:33:13.179Z,17.20
2022-12-12T09:35:42.874Z,17.20
2022-12-12T09:38:14.987Z,17.20
2022-12-12T09:40:53.312Z,17.10
2022-12-12T09:43:29.723Z,17.20
2022-12-12T09:46:00.571Z,17.10
2022-12-12T09:48:37.094Z,17.10
2022-12-12T09:51:06.727Z,17.10
2022-12-12T09:53:36.194Z,17.10
2022-12-12T09:56:15.236Z,17.10
2022-12-12T09:58:56.527Z,17.10
2022-12-12T10:01:34.034Z,17.10
2022-12-12T10:04:12.999Z,17.10
2022-12-12T10:06:48.277Z,17.10
2022-12-12T10:09:36.281Z,17.10
2022-12-12T10:12:12.982Z,17.10
2022-12-12T10:14:46.480Z,17.10
2022-12-12T10:17:18.863Z,17.10
2022-12-12T10:19:51.332Z,17.10
2022-12-12T10:22:27.381Z,17.10
2022-12-12T10:25:01.133Z,17.10
2022-12-12T10:27:32.435Z,17.00
2022-12-12T10:30:15.166Z,17.10
2022-12-12T10:33:02.103Z,17.00
2022-12-12T10:35:40.958Z,17.00
2022-12-12T10:38:23.751Z,17.00
2022-12-12T10:41:00.309Z,17.00
2022-12-12T10:43:36.110Z,17.00
2022-12-12T10:46:17.800Z,17.00
2022-12-12T10:48:49.883Z,17.00
2022-12-12T10:51:22.462Z,17.00
2022-12-12T10:53:51.948Z,17.00
2022-12-12T10:56:24.037Z,17.00
2022-12-12T10:58:59.657Z,17.00
2022-12-12T11:02:07.905Z,17.00
2022-12-12T11:04:23.241Z,17.00
2022-12-12T11:06:55.065Z,17.00
2022-12-12T11:09:27.583Z,16.90
2022-12-12T11:12:02.560Z,16.90
2022-12-12T11:14:36.419Z,16.90
2022-12-12T11:17:22.232Z,16.90
2022-12-12T11:19:55.571Z,16.90
2022-12-12T11:22:25.576Z,16.90
2022-12-12T11:24:55.572Z,16.90
2022-12-12T11:27:28.958Z,16.90
2022-12-12T11:30:00.712Z,17.00
2022-12-12T11:32:32.792Z,17.00
2022-12-12T11:35:04.687Z,17.00
2022-12-12T11:37:38.654Z,17.00
2022-12-12T11:40:23.261Z,16.90
2022-12-12T11:42:52.963Z,17.00
2022-12-12T11:45:25.489Z,16.90
2022-12-12T11:47:55.420Z,16.90
2022-12-12T11:50:26.776Z,16.90
2022-12-12T11:52:58.256Z,16.90
2022-12-12T11:55:40.135Z,16.80
2022-12-12T11:58:17.652Z,16.90
2022-12-12T12:00:59.286Z,16.80
2022-12-12T12:03:40.286Z,16.80
2022-12-12T12:06:34.061Z,16.80
2022-12-12T12:09:23.744Z,16.80
2022-12-12T12:12:02.792Z,16.80
2022-12-12T12:14:59.020Z,16.80
2022-12-12T12:17:43.335Z,16.80
2022-12-12T12:20:23.483Z,16.80
2022-12-12T12:23:04.816Z,16.80
2022-12-12T12:25:51.445Z,16.80
2022-12-12T12:28:45.063Z,16.80
2022-12-12T12:31:23.176Z,16.90
2022-12-12T12:34:08.443Z,16.80
2022-12-12T12:36:47.886Z,16.80
2022-12-12T12:39:31.292Z,16.80
2022-12-12T12:42:20.015Z,16.80
2022-12-12T12:44:53.914Z,16.80
2022-12-12T12:47:32.514Z,16.80
2022-12-12T12:50:07.348Z,16.80
2022-12-12T12:52:40.204Z,16.90
2022-12-12T12:55:18.109Z,16.90
2022-12-12T12:57:50.493Z,16.90
2022-12-12T13:00:23.650Z,17.00
2022-12-12T13:03:00.219Z,17.10
2022-12-12T13:05:38.527Z,17.00
2022-12-12T13:08:15.828Z,17.00
2022-12-12T13:10:48.889Z,17.10
2022-12-12T13:13:24.103Z,17.10
2022-12-12T13:15:57.344Z,17.10
2022-12-12T13:18:37.114Z,17.10
2022-12-12T13:21:25.548Z,17.10
2022-12-12T13:23:58.285Z,17.10
2022-12-12T13:26:33.656Z,17.10
2022-12-12T13:29:06.846Z,17.10
2022-12-12T13:31:46.168Z,17.10
2022-12-12T13:34:17.955Z,17.10
2022-12-12T13:36:50.893Z,17.10
2022-12-12T13:39:30.919Z,17.10
2022-12-12T13:42:02.988Z,17.10
2022-12-12T13:44:44.512Z,17.00
2022-12-12T13:47:58.660Z,17.00
2022-12-12T13:50:28.042Z,17.00
2022-12-12T13:53:20.435Z,16.90
2022-12-12T13:55:49.804Z,16.90
2022-12-12T13:58:35.540Z,16.90
2022-12-12T14:01:40.609Z,16.90
2022-12-12T14:04:27.971Z,16.80
2022-12-12T14:07:02.053Z,16.80
2022-12-12T14:09:47.772Z,16.80
2022-12-12T14:12:23.775Z,16.80
2022-12-12T14:14:58.953Z,16.70
2022-12-12T14:17:38.364Z,16.70
2022-12-12T14:20:27.477Z,16.70
2022-12-12T14:23:28.249Z,16.70
2022-12-12T14:26:01.050Z,16.70
2022-12-12T14:28:31.554Z,16.70
2022-12-12T14:31:17.053Z,16.70
2022-12-12T14:37:28.859Z,16.70
2022-12-12T14:40:05.058Z,16.70
2022-12-12T14:43:15.240Z,16.60
2022-12-12T14:45:38.603Z,16.60
2022-12-12T14:48:27.016Z,16.60
2022-12-12T14:51:01.061Z,16.60
2022-12-12T14:53:35.371Z,16.60
2022-12-12T14:56:09.507Z,16.60
2022-12-12T14:58:46.275Z,16.60
2022-12-12T15:01:32.638Z,16.60
2022-12-12T15:04:05.480Z,16.60
2022-12-12T15:06:37.736Z,16.50
2022-12-12T15:09:26.042Z,16.50
2022-12-12T15:11:57.368Z,16.60
2022-12-12T15:14:29.095Z,16.60
2022-12-12T15:17:04.466Z,16.60
2022-12-12T15:19:37.820Z,16.60
2022-12-12T15:22:12.809Z,16.60
2022-12-12T15:24:42.415Z,16.60
2022-12-12T15:27:21.089Z,16.60
2022-12-12T15:29:52.182Z,16.60
2022-12-12T15:32:24.082Z,16.60
2022-12-12T15:35:03.527Z,16.70
2022-12-12T15:37:34.566Z,16.70
2022-12-12T15:40:20.285Z,16.80
2022-12-12T15:42:54.407Z,17.00
2022-12-12T15:45:33.040Z,17.00
2022-12-12T15:48:02.785Z,17.20
2022-12-12T15:50:53.597Z,17.30
2022-12-12T15:53:25.007Z,17.40
2022-12-12T15:55:59.745Z,17.50
2022-12-12T15:58:32.294Z,17.60
2022-12-12T16:01:20.334Z,17.70
2022-12-12T16:03:56.417Z,17.80
2022-12-12T16:06:28.714Z,17.90
2022-12-12T16:09:03.366Z,18.00
2022-12-12T16:11:45.504Z,18.10
2022-12-12T16:14:39.775Z,18.20
2022-12-12T16:17:21.190Z,18.30
2022-12-12T16:19:56.040Z,18.40
2022-12-12T16:22:47.952Z,18.40
2022-12-12T16:25:22.521Z,18.60
2022-12-12T16:27:58.008Z,18.60
2022-12-12T16:30:28.038Z,18.70
2022-12-12T16:32:58.905Z,18.80
2022-12-12T16:35:28.630Z,18.90
2022-12-12T16:37:57.809Z,19.00
2022-12-12T16:40:27.178Z,19.10
2022-12-12T16:43:06.406Z,19.20
2022-12-12T16:45:40.472Z,19.30
2022-12-12T16:48:16.169Z,19.30
2022-12-12T16:50:50.308Z,19.40
2022-12-12T16:53:20.199Z,19.40
2022-12-12T16:55:52.266Z,19.40
2022-12-12T16:58:22.511Z,19.50
2022-12-12T17:00:53.753Z,19.50
2022-12-12T17:03:25.099Z,19.40
2022-12-12T17:05:54.752Z,19.20
2022-12-12T17:08:24.317Z,19.10
2022-12-12T17:11:10.153Z,19.00
2022-12-12T17:13:43.583Z,18.90
2022-12-12T17:16:13.072Z,18.90
2022-12-12T17:18:43.901Z,18.80
2022-12-12T17:21:13.662Z,18.80
2022-12-12T17:23:42.992Z,18.80
2022-12-12T17:26:12.310Z,18.80
2022-12-12T17:28:41.631Z,18.80
2022-12-12T17:31:11.480Z,18.80
2022-12-12T17:33:50.310Z,18.80
2022-12-12T17:36:20.907Z,18.80
2022-12-12T17:38:50.600Z,18.90
2022-12-12T17:41:19.847Z,18.90
2022-12-12T17:43:55.109Z,19.00
2022-12-12T17:46:27.924Z,19.10
2022-12-12T17:49:02.080Z,19.10
2022-12-12T17:51:31.433Z,19.20
2022-12-12T17:54:01.063Z,19.20
2022-12-12T17:56:30.587Z,19.30
2022-12-12T17:58:59.920Z,19.40
2022-12-12T18:01:31.738Z,19.40
2022-12-12T18:04:03.932Z,19.40
2022-12-12T18:06:36.244Z,19.50
2022-12-12T18:09:06.407Z,19.50
2022-12-12T18:11:38.022Z,19.50
2022-12-12T18:14:09.125Z,19.60
2022-12-12T18:16:38.580Z,19.60
2022-12-12T18:19:09.267Z,19.60
2022-12-12T18:24:30.540Z,19.60
2022-12-12T18:27:01.243Z,19.60
2022-12-12T18:29:30.626Z,19.60
2022-12-12T18:32:00.020Z,19.60
2022-12-12T18:34:30.760Z,19.60
2022-12-12T18:36:59.998Z,19.70
2022-12-12T18:39:29.492Z,19.70
2022-12-12T18:41:58.769Z,19.60
2022-12-12T18:44:28.200Z,19.70
2022-12-12T18:46:57.403Z,19.60
2022-12-12T18:49:26.787Z,19.70
2022-12-12T18:51:57.591Z,19.70
2022-12-12T18:54:27.338Z,19.80
2022-12-12T18:56:56.599Z,19.80
2022-12-12T18:59:25.906Z,19.80
2022-12-12T19:01:55.439Z,19.90
2022-12-12T19:04:25.562Z,19.90
2022-12-12T19:06:56.674Z,19.90
2022-12-12T19:09:25.949Z,19.90
2022-12-12T19:12:01.983Z,19.90
2022-12-12T19:17:26.180Z,20.00
2022-12-12T19:19:56.389Z,20.10
2022-12-12T19:25:17.460Z,20.10
2022-12-12T19:27:47.027Z,20.10
2022-12-12T19:30:17.617Z,20.20
2022-12-12T19:32:49.206Z,20.20
2022-12-12T19:35:18.801Z,20.20
2022-12-12T19:37:49.619Z,20.20
2022-12-12T19:40:19.125Z,20.20
2022-12-12T19:42:48.537Z,20.20
2022-12-12T19:45:18.347Z,20.20
2022-12-12T19:47:47.838Z,20.20
2022-12-12T19:50:17.435Z,20.20
2022-12-12T19:52:48.596Z,20.20
2022-12-12T19:55:18.119Z,20.20
2022-12-12T19:57:47.387Z,20.20
2022-12-12T20:00:20.101Z,20.20
2022-12-12T20:02:49.476Z,20.20
2022-12-12T20:05:19.947Z,20.10
2022-12-12T20:07:50.703Z,20.20
2022-12-12T20:10:20.058Z,20.20
2022-12-12T20:12:57.997Z,20.20
2022-12-12T20:15:28.076Z,20.20
2022-12-12T20:18:00.599Z,20.10
2022-12-12T20:20:30.001Z,20.10
2022-12-12T20:23:00.629Z,20.10
2022-12-12T20:25:30.268Z,20.20
2022-12-12T20:27:59.557Z,20.20
2022-12-12T20:30:28.986Z,20.20
2022-12-12T20:33:00.280Z,20.10
2022-12-12T20:35:30.058Z,20.10
2022-12-12T20:38:00.850Z,20.10
2022-12-12T20:40:30.301Z,20.10
2022-12-12T20:43:03.366Z,20.20
2022-12-12T20:45:33.222Z,20.20
2022-12-12T20:48:07.375Z,20.10
2022-12-12T20:50:37.162Z,20.10
2022-12-12T20:53:07.924Z,20.10
2022-12-12T20:55:37.543Z,20.10
2022-12-12T20:58:06.843Z,20.20
2022-12-12T21:00:36.918Z,20.10
2022-12-12T21:03:06.625Z,20.20
2022-12-12T21:05:36.411Z,20.20
2022-12-12T21:08:06.063Z,20.20
2022-12-12T21:10:37.319Z,20.20
2022-12-12T21:13:06.846Z,20.20
2022-12-12T21:15:37.470Z,20.20
2022-12-12T21:18:08.190Z,20.20
2022-12-12T21:20:37.684Z,20.20
2022-12-12T21:23:07.194Z,20.20
2022-12-12T21:25:38.724Z,20.20
2022-12-12T21:28:07.930Z,20.20
2022-12-12T21:30:37.745Z,20.20
2022-12-12T21:33:06.938Z,20.20
2022-12-12T21:35:36.342Z,20.20
2022-12-12T21:38:06.120Z,20.20
2022-12-12T21:40:38.351Z,20.10
2022-12-12T21:43:07.643Z,20.10
2022-12-12T21:45:38.920Z,20.10
2022-12-12T21:48:08.525Z,20.30
2022-12-12T21:50:39.206Z,20.30
2022-12-12T21:53:25.683Z,20.20
2022-12-12T21:55:59.368Z,20.10
2022-12-12T21:58:29.605Z,20.10
2022-12-12T22:01:05.756Z,20.00
2022-12-12T22:03:35.118Z,20.00
2022-12-12T22:06:12.171Z,19.90
2022-12-12T22:08:42.048Z,19.90
2022-12-12T22:11:12.985Z,19.90
2022-12-12T22:13:42.791Z,19.90
2022-12-12T22:16:15.445Z,19.90
2022-12-12T22:18:45.697Z,19.90
2022-12-12T22:21:16.450Z,19.80
2022-12-12T22:23:46.503Z,19.80
2022-12-12T22:26:19.344Z,19.80
2022-12-12T22:28:48.694Z,19.80
2022-12-12T22:31:18.479Z,19.80
2022-12-12T22:33:48.754Z,19.70
2022-12-12T22:36:21.106Z,19.70
2022-12-12T22:38:50.386Z,19.70
2022-12-12T22:41:21.517Z,19.70
2022-12-12T22:43:54.955Z,19.70
2022-12-12T22:46:26.499Z,19.60
2022-12-12T22:48:57.475Z,19.60
2022-12-12T22:51:29.262Z,19.60
2022-12-12T22:53:59.145Z,19.60
2022-12-12T22:56:31.980Z,19.50
2022-12-12T22:59:01.488Z,19.50
2022-12-12T23:01:31.104Z,19.50
2022-12-12T23:04:00.688Z,19.50
2022-12-12T23:06:32.325Z,19.50
2022-12-12T23:09:03.465Z,19.50
2022-12-12T23:11:35.705Z,19.40
2022-12-12T23:14:07.027Z,19.40
2022-12-12T23:16:36.694Z,19.40
2022-12-12T23:19:08.158Z,19.40
2022-12-12T23:21:38.829Z,19.40
2022-12-12T23:24:09.250Z,19.40
2022-12-12T23:26:40.340Z,19.30
2022-12-12T23:29:12.914Z,19.30
2022-12-12T23:31:42.293Z,19.30
2022-12-12T23:34:16.650Z,19.30
2022-12-12T23:36:45.952Z,19.30
2022-12-12T23:39:15.844Z,19.20
2022-12-12T23:41:47.498Z,19.20
2022-12-12T23:44:18.590Z,19.20
2022-12-12T23:46:48.639Z,19.20
2022-12-12T23:49:20.674Z,19.20
2022-12-12T23:51:51.818Z,19.20
2022-12-12T23:54:23.699Z,19.20
2022-12-12T23:56:55.377Z,19.10
2022-12-12T23:59:24.626Z,19.10
